Time;durP1;ratioP1;P1;durP2;ratioP2;P2;SDS_P1;SDS_P2;PMS_P1;PMS_P2;Temp;Humidity;BMP_temperature;BMP_pressure;BME280_temperature;BME280_humidity;BME280_pressure;Samples;Min_cycle;Max_cycle;Signal;HPM_P1;HPM_P2
2023/01/10 00:00:53;;;;;;;7.80;6.50;;;;;;;;;;5093169;28;20459;-78
2023/01/10 00:03:19;;;;;;;13.03;7.50;;;;;;;;;;5074629;28;20416;-78
2023/01/10 00:05:46;;;;;;;14.60;6.83;;;;;;;;;;5094408;28;20782;-77
2023/01/10 00:08:16;;;;;;;16.20;7.40;;;;;;;;;;5086884;28;20412;-77
2023/01/10 00:10:42;;;;;;;8.88;7.88;;;;;;;;;;5092038;28;20193;-78
2023/01/10 00:13:22;;;;;;;8.05;5.03;;;;;;;;;;5080593;28;20186;-78
2023/01/10 00:15:49;;;;;;;19.03;7.20;;;;;;;;;;5099590;27;20205;-77
2023/01/10 00:18:15;;;;;;;14.13;6.20;;;;;;;;;;5088277;28;20429;-77
2023/01/10 00:20:43;;;;;;;13.40;6.43;;;;;;;;;;5089984;28;20454;-77
2023/01/10 00:23:09;;;;;;;11.20;5.50;;;;;;;;;;5086599;28;20432;-78
2023/01/10 00:25:35;;;;;;;9.07;5.45;;;;;;;;;;5101064;28;21178;-78
2023/01/10 00:28:09;;;;;;;5.70;5.20;;;;;;;;;;5081520;28;20186;-77
2023/01/10 00:30:37;;;;;;;7.43;5.20;;;;;;;;;;5080483;28;20530;-77
2023/01/10 00:33:03;;;;;;;6.30;5.20;;;;;;;;;;5078028;28;20392;-77
2023/01/10 00:35:29;;;;;;;6.73;6.07;;;;;;;;;;5092065;28;20608;-77
2023/01/10 00:38:04;;;;;;;5.72;5.20;;;;;;;;;;5082169;28;20444;-77
2023/01/10 00:40:30;;;;;;;10.00;4.70;;;;;;;;;;5082740;28;20246;-77
2023/01/10 00:45:43;;;;;;;11.43;4.40;;;;;;;;;;5084880;28;20999;-77
2023/01/10 00:48:09;;;;;;;6.55;5.18;;;;;;;;;;5072402;28;20405;-78
2023/01/10 00:50:35;;;;;;;9.13;5.20;;;;;;;;;;5096711;28;20422;-77
2023/01/10 00:53:01;;;;;;;9.57;5.10;;;;;;;;;;5090439;28;20918;-76
2023/01/10 00:55:27;;;;;;;10.60;4.80;;;;;;;;;;5093270;28;20471;-76
2023/01/10 00:57:53;;;;;;;9.27;4.80;;;;;;;;;;5085467;28;20415;-77
2023/01/10 01:00:19;;;;;;;9.33;4.17;;;;;;;;;;5093871;28;20929;-76
2023/01/10 01:02:47;;;;;;;5.35;4.68;;;;;;;;;;5098815;28;20416;-76
2023/01/10 01:05:13;;;;;;;7.97;4.68;;;;;;;;;;5089585;28;20184;-78
2023/01/10 01:07:39;;;;;;;7.57;4.93;;;;;;;;;;5091786;28;20693;-78
2023/01/10 01:12:49;;;;;;;3.80;3.50;;;;;;;;;;5081741;28;20532;-77
2023/01/10 01:15:15;;;;;;;10.37;4.47;;;;;;;;;;5101886;28;20434;-77
2023/01/10 01:17:41;;;;;;;9.87;4.83;;;;;;;;;;5089551;28;20463;-77
2023/01/10 01:20:08;;;;;;;7.87;4.20;;;;;;;;;;5092551;28;20463;-77
2023/01/10 01:22:34;;;;;;;4.33;3.93;;;;;;;;;;5078744;28;21029;-77
2023/01/10 01:25:00;;;;;;;7.17;3.97;;;;;;;;;;5082609;28;20470;-77
2023/01/10 01:27:26;;;;;;;5.43;4.70;;;;;;;;;;5075491;28;20807;-77
2023/01/10 01:29:52;;;;;;;4.50;4.30;;;;;;;;;;5090737;28;20513;-77
2023/01/10 01:32:18;;;;;;;5.30;3.58;;;;;;;;;;5081825;28;20472;-78
2023/01/10 01:34:44;;;;;;;8.90;3.70;;;;;;;;;;5084154;28;20225;-78
2023/01/10 01:37:10;;;;;;;7.23;4.07;;;;;;;;;;5078121;28;20986;-77
2023/01/10 01:39:36;;;;;;;7.83;3.90;;;;;;;;;;5083258;28;20432;-77
2023/01/10 01:42:02;;;;;;;7.40;4.40;;;;;;;;;;5079521;28;20489;-77
2023/01/10 01:44:32;;;;;;;3.40;2.85;;;;;;;;;;5091058;28;20933;-77
2023/01/10 01:47:05;;;;;;;9.77;3.40;;;;;;;;;;5069949;28;20217;-77
2023/01/10 01:49:33;;;;;;;6.05;3.40;;;;;;;;;;5088654;28;20436;-77
2023/01/10 01:52:02;;;;;;;7.30;3.60;;;;;;;;;;5095542;28;20206;-76
2023/01/10 01:54:29;;;;;;;7.13;3.03;;;;;;;;;;5090365;28;20428;-77
2023/01/10 01:56:58;;;;;;;6.20;3.10;;;;;;;;;;5082635;28;20498;-77
2023/01/10 01:59:29;;;;;;;6.90;3.10;;;;;;;;;;5079476;28;20532;-77
2023/01/10 02:01:58;;;;;;;7.03;3.17;;;;;;;;;;5071834;28;20859;-77
2023/01/10 02:04:28;;;;;;;7.28;2.47;;;;;;;;;;5095593;28;20672;-77
2023/01/10 02:06:55;;;;;;;2.40;2.30;;;;;;;;;;5081268;27;20204;-77
2023/01/10 02:09:41;;;;;;;14.27;3.80;;;;;;;;;;5089250;28;20472;-75
2023/01/10 02:12:08;;;;;;;6.67;2.93;;;;;;;;;;5086366;28;20444;-76
2023/01/10 02:14:35;;;;;;;6.13;3.73;;;;;;;;;;5105267;28;20980;-76
2023/01/10 02:17:01;;;;;;;2.37;2.27;;;;;;;;;;5070642;28;20525;-76
2023/01/10 02:19:46;;;;;;;2.43;2.17;;;;;;;;;;5080222;28;20808;-76
2023/01/10 02:22:21;;;;;;;6.63;2.70;;;;;;;;;;5083534;28;20747;-76
2023/01/10 02:25:06;;;;;;;7.65;2.08;;;;;;;;;;5080929;28;20418;-77
2023/01/10 02:30:53;;;;;;;3.60;2.55;;;;;;;;;;5089127;28;20614;-77
2023/01/10 02:33:29;;;;;;;8.68;2.60;;;;;;;;;;5076706;28;20178;-77
2023/01/10 02:36:04;;;;;;;4.97;2.23;;;;;;;;;;5098805;28;20209;-77
2023/01/10 02:38:33;;;;;;;7.63;2.43;;;;;;;;;;5083665;28;20407;-77
2023/01/10 02:41:08;;;;;;;5.47;2.77;;;;;;;;;;5098851;28;20452;-78
2023/01/10 02:43:38;;;;;;;5.88;2.75;;;;;;;;;;5078516;28;20454;-77
2023/01/10 02:46:15;;;;;;;7.90;2.25;;;;;;;;;;5096042;28;20197;-77
2023/01/10 02:48:42;;;;;;;14.13;3.00;;;;;;;;;;5075831;28;20174;-77
2023/01/10 02:51:18;;;;;;;10.50;2.90;;;;;;;;;;5094350;28;20239;-76
2023/01/10 02:53:47;;;;;;;8.98;2.42;;;;;;;;;;5088841;28;20206;-77
2023/01/10 02:56:13;;;;;;;6.90;3.07;;;;;;;;;;5087410;28;20213;-77
2023/01/10 02:58:39;;;;;;;3.00;2.67;;;;;;;;;;5076089;28;20424;-76
2023/01/10 03:01:07;;;;;;;2.03;1.93;;;;;;;;;;5093968;28;20516;-77
2023/01/10 03:04:01;;;;;;;9.33;2.93;;;;;;;;;;5078170;28;20424;-77
2023/01/10 03:06:45;;;;;;;2.70;2.43;;;;;;;;;;5090747;28;20424;-77
2023/01/10 03:09:23;;;;;;;8.37;3.20;;;;;;;;;;5089676;28;20988;-76
2023/01/10 03:11:51;;;;;;;3.90;2.60;;;;;;;;;;5090675;28;20855;-77
2023/01/10 03:14:19;;;;;;;5.70;2.08;;;;;;;;;;5099745;28;20781;-77
2023/01/10 03:16:50;;;;;;;11.48;2.45;;;;;;;;;;5079060;28;20299;-76
2023/01/10 03:19:18;;;;;;;3.13;2.20;;;;;;;;;;5094216;28;20300;-76
2023/01/10 03:21:47;;;;;;;2.72;2.33;;;;;;;;;;5081680;28;21010;-77
2023/01/10 03:24:18;;;;;;;9.45;2.97;;;;;;;;;;5082593;28;20267;-77
2023/01/10 03:26:44;;;;;;;13.88;3.22;;;;;;;;;;5073411;28;20209;-77
2023/01/10 03:29:12;;;;;;;3.30;2.30;;;;;;;;;;5068103;28;20190;-77
2023/01/10 03:31:50;;;;;;;6.82;2.70;;;;;;;;;;5086152;28;20436;-78
2023/01/10 03:34:16;;;;;;;10.60;3.10;;;;;;;;;;5083956;28;20841;-77
2023/01/10 03:37:01;;;;;;;6.20;2.80;;;;;;;;;;5079649;28;20621;-78
2023/01/10 03:39:39;;;;;;;4.10;2.63;;;;;;;;;;5097424;28;20704;-78
2023/01/10 03:42:16;;;;;;;5.50;2.40;;;;;;;;;;5070669;28;20650;-77
2023/01/10 03:44:47;;;;;;;5.30;2.80;;;;;;;;;;5079164;28;20601;-77
2023/01/10 03:47:30;;;;;;;4.10;2.37;;;;;;;;;;5076275;28;20436;-77
2023/01/10 03:49:58;;;;;;;5.80;3.40;;;;;;;;;;5103088;27;20517;-78
2023/01/10 03:52:25;;;;;;;4.85;2.38;;;;;;;;;;5083729;28;20478;-77
2023/01/10 03:54:52;;;;;;;11.98;3.10;;;;;;;;;;5092319;28;20196;-77
2023/01/10 03:57:22;;;;;;;2.53;2.33;;;;;;;;;;5079832;28;20217;-77
2023/01/10 03:59:51;;;;;;;9.13;2.30;;;;;;;;;;5090729;28;20683;-77
2023/01/10 04:02:17;;;;;;;7.00;3.13;;;;;;;;;;5085168;28;20578;-77
2023/01/10 04:04:43;;;;;;;3.27;2.43;;;;;;;;;;5087594;28;20197;-77
2023/01/10 04:07:09;;;;;;;11.07;3.97;;;;;;;;;;5084158;27;20440;-77
2023/01/10 04:09:35;;;;;;;9.93;3.23;;;;;;;;;;5072234;28;20489;-77
2023/01/10 04:12:01;;;;;;;16.23;2.70;;;;;;;;;;5083328;28;20443;-77
2023/01/10 04:14:28;;;;;;;5.10;2.92;;;;;;;;;;5086197;28;20498;-76
2023/01/10 04:16:54;;;;;;;3.83;3.63;;;;;;;;;;5081816;28;20288;-77
2023/01/10 04:19:21;;;;;;;3.92;2.38;;;;;;;;;;5085890;28;20262;-78
2023/01/10 04:21:47;;;;;;;4.55;2.65;;;;;;;;;;5083862;27;20218;-76
2023/01/10 04:24:12;;;;;;;7.13;2.43;;;;;;;;;;5085494;28;20186;-77
2023/01/10 04:26:39;;;;;;;10.40;2.83;;;;;;;;;;5081275;28;20440;-77
2023/01/10 04:29:05;;;;;;;13.80;3.40;;;;;;;;;;5095599;27;20429;-77
2023/01/10 04:31:31;;;;;;;3.42;2.55;;;;;;;;;;5083422;28;20229;-77
2023/01/10 04:33:57;;;;;;;5.72;2.83;;;;;;;;;;5083217;28;20174;-77
2023/01/10 04:36:23;;;;;;;4.28;2.35;;;;;;;;;;5077097;28;20457;-77
2023/01/10 04:38:49;;;;;;;6.27;2.53;;;;;;;;;;5086345;28;20183;-77
2023/01/10 04:41:15;;;;;;;6.30;3.30;;;;;;;;;;5088106;28;20432;-77
2023/01/10 04:43:41;;;;;;;5.13;2.07;;;;;;;;;;5082674;28;20435;-77
2023/01/10 04:46:07;;;;;;;4.77;2.20;;;;;;;;;;5083645;28;20493;-76
2023/01/10 04:48:35;;;;;;;5.03;2.50;;;;;;;;;;5074725;28;20420;-76
2023/01/10 04:51:01;;;;;;;9.23;3.22;;;;;;;;;;5098697;28;21104;-78
2023/01/10 04:53:27;;;;;;;3.73;2.50;;;;;;;;;;5071875;28;20163;-77
2023/01/10 04:55:53;;;;;;;11.87;3.43;;;;;;;;;;5095186;28;20560;-77
2023/01/10 04:58:19;;;;;;;8.63;2.93;;;;;;;;;;5091094;28;20867;-77
2023/01/10 05:00:46;;;;;;;2.97;2.30;;;;;;;;;;5091939;28;20444;-77
2023/01/10 05:03:12;;;;;;;6.18;2.78;;;;;;;;;;5074385;28;20572;-77
2023/01/10 05:05:38;;;;;;;5.17;3.67;;;;;;;;;;5083741;28;20229;-76
2023/01/10 05:08:04;;;;;;;4.40;1.97;;;;;;;;;;5081099;28;20523;-77
2023/01/10 05:10:30;;;;;;;9.85;3.88;;;;;;;;;;5073048;28;20443;-77
2023/01/10 05:12:56;;;;;;;8.93;2.40;;;;;;;;;;5080611;28;20665;-77
2023/01/10 05:15:22;;;;;;;15.40;3.93;;;;;;;;;;5084418;28;20222;-78
2023/01/10 05:17:53;;;;;;;8.73;2.00;;;;;;;;;;5069380;28;21393;-79
2023/01/10 05:20:19;;;;;;;6.57;2.90;;;;;;;;;;5073537;28;20469;-78
2023/01/10 05:22:45;;;;;;;6.77;3.17;;;;;;;;;;5072900;28;20296;-78
2023/01/10 05:25:11;;;;;;;11.27;2.47;;;;;;;;;;5091463;28;20519;-77
2023/01/10 05:27:40;;;;;;;21.13;2.97;;;;;;;;;;5079619;28;20440;-77
2023/01/10 05:30:07;;;;;;;13.25;3.58;;;;;;;;;;5087663;28;20174;-78
2023/01/10 05:32:34;;;;;;;16.00;6.30;;;;;;;;;;5077222;28;20209;-76
2023/01/10 05:35:00;;;;;;;11.02;2.85;;;;;;;;;;5078469;28;20443;-76
2023/01/10 05:37:25;;;;;;;4.13;2.50;;;;;;;;;;5087549;28;20210;-77
2023/01/10 05:39:51;;;;;;;5.30;2.97;;;;;;;;;;5085055;28;20852;-76
2023/01/10 05:42:18;;;;;;;5.95;2.78;;;;;;;;;;5081932;28;20557;-77
2023/01/10 05:44:44;;;;;;;6.82;2.20;;;;;;;;;;5080702;28;20550;-76
2023/01/10 05:47:10;;;;;;;11.20;3.60;;;;;;;;;;5076879;28;20514;-77
2023/01/10 05:49:37;;;;;;;25.43;2.90;;;;;;;;;;5084476;28;20454;-77
2023/01/10 05:52:03;;;;;;;7.38;3.13;;;;;;;;;;5082754;28;20438;-77
2023/01/10 05:54:29;;;;;;;5.82;2.80;;;;;;;;;;5081056;28;20287;-77
2023/01/10 05:56:55;;;;;;;14.00;4.13;;;;;;;;;;5076804;28;20267;-77
2023/01/10 05:59:21;;;;;;;9.07;3.08;;;;;;;;;;5081653;28;20204;-77
2023/01/10 06:01:48;;;;;;;8.68;4.43;;;;;;;;;;5082417;28;20344;-77
2023/01/10 06:04:14;;;;;;;21.45;3.33;;;;;;;;;;5084035;28;20186;-77
2023/01/10 06:06:41;;;;;;;5.17;3.80;;;;;;;;;;5081994;28;20186;-76
2023/01/10 06:09:07;;;;;;;4.17;2.90;;;;;;;;;;5075343;28;20463;-78
2023/01/10 06:11:35;;;;;;;9.43;2.80;;;;;;;;;;5082824;28;20434;-76
2023/01/10 06:14:01;;;;;;;11.13;2.85;;;;;;;;;;5072092;28;20440;-78
2023/01/10 06:16:27;;;;;;;6.75;2.70;;;;;;;;;;5076445;28;20684;-77
2023/01/10 06:18:54;;;;;;;9.13;2.73;;;;;;;;;;5076756;28;20206;-77
2023/01/10 06:21:20;;;;;;;10.35;2.90;;;;;;;;;;5078073;28;20448;-77
2023/01/10 06:23:46;;;;;;;5.10;2.88;;;;;;;;;;5091048;28;20614;-77
2023/01/10 06:26:12;;;;;;;7.67;2.93;;;;;;;;;;5098194;28;20189;-76
2023/01/10 06:28:39;;;;;;;10.57;3.72;;;;;;;;;;5078472;28;20439;-77
2023/01/10 06:31:06;;;;;;;11.55;3.53;;;;;;;;;;5090004;28;20268;-77
2023/01/10 06:33:32;;;;;;;12.50;4.10;;;;;;;;;;5083019;28;20186;-77
2023/01/10 06:35:58;;;;;;;3.50;2.87;;;;;;;;;;5092217;28;20232;-76
2023/01/10 06:38:24;;;;;;;13.47;2.97;;;;;;;;;;5082938;28;20691;-77
2023/01/10 06:40:50;;;;;;;12.00;3.60;;;;;;;;;;5095931;27;20442;-77
2023/01/10 06:43:16;;;;;;;6.73;2.97;;;;;;;;;;5086272;28;20435;-78
2023/01/10 06:45:42;;;;;;;9.43;2.53;;;;;;;;;;5097660;27;20461;-76
2023/01/10 06:48:08;;;;;;;8.70;3.00;;;;;;;;;;5083831;28;20447;-79
2023/01/10 06:50:34;;;;;;;9.15;2.95;;;;;;;;;;5081475;28;20443;-77
2023/01/10 06:53:01;;;;;;;6.57;2.87;;;;;;;;;;5081042;28;20186;-78
2023/01/10 06:55:27;;;;;;;28.00;4.53;;;;;;;;;;5091122;28;21177;-77
2023/01/10 06:57:57;;;;;;;9.90;2.20;;;;;;;;;;5084209;28;20193;-77
2023/01/10 07:00:24;;;;;;;8.40;2.63;;;;;;;;;;5085352;28;20186;-77
2023/01/10 07:02:50;;;;;;;8.37;3.90;;;;;;;;;;5084000;28;20443;-78
2023/01/10 07:05:16;;;;;;;7.90;2.60;;;;;;;;;;5091067;27;20436;-76
2023/01/10 07:07:42;;;;;;;9.73;3.40;;;;;;;;;;5079049;28;20443;-78
2023/01/10 07:10:09;;;;;;;13.30;3.27;;;;;;;;;;5080843;28;20487;-78
2023/01/10 07:12:35;;;;;;;15.27;3.73;;;;;;;;;;5080954;28;21004;-77
2023/01/10 07:15:01;;;;;;;8.47;2.40;;;;;;;;;;5077649;28;20444;-78
2023/01/10 07:17:27;;;;;;;7.43;3.23;;;;;;;;;;5085385;28;20474;-76
2023/01/10 07:19:53;;;;;;;3.87;2.07;;;;;;;;;;5077500;28;21000;-77
2023/01/10 07:22:19;;;;;;;9.60;2.67;;;;;;;;;;5079265;28;20527;-76
2023/01/10 07:24:45;;;;;;;10.70;3.07;;;;;;;;;;5078022;28;20453;-77
2023/01/10 07:27:11;;;;;;;11.20;3.53;;;;;;;;;;5077925;28;20428;-77
2023/01/10 07:29:37;;;;;;;14.52;3.72;;;;;;;;;;5094379;28;20455;-77
2023/01/10 07:32:03;;;;;;;9.90;3.23;;;;;;;;;;5079993;28;20450;-77
2023/01/10 07:34:29;;;;;;;9.75;3.38;;;;;;;;;;5082830;28;20492;-77
2023/01/10 07:36:55;;;;;;;7.80;3.33;;;;;;;;;;5081640;28;20689;-77
2023/01/10 07:39:21;;;;;;;9.10;3.70;;;;;;;;;;5088644;28;20461;-78
2023/01/10 07:41:48;;;;;;;9.40;3.90;;;;;;;;;;5084449;28;20439;-77
2023/01/10 07:44:14;;;;;;;12.27;3.00;;;;;;;;;;5087670;28;20503;-77
2023/01/10 07:46:40;;;;;;;14.07;3.43;;;;;;;;;;5083794;28;20699;-77
2023/01/10 07:49:06;;;;;;;10.87;3.83;;;;;;;;;;5104257;27;21029;-79
2023/01/10 07:51:32;;;;;;;6.57;2.55;;;;;;;;;;5085094;28;20432;-78
2023/01/10 07:53:58;;;;;;;10.48;2.63;;;;;;;;;;5078236;28;20581;-77
2023/01/10 07:56:25;;;;;;;9.90;3.77;;;;;;;;;;5086221;28;20672;-76
2023/01/10 07:58:51;;;;;;;5.03;2.50;;;;;;;;;;5073520;28;20482;-76
2023/01/10 08:01:17;;;;;;;12.70;4.17;;;;;;;;;;5075507;28;20436;-76
2023/01/10 08:03:43;;;;;;;7.20;2.53;;;;;;;;;;5089326;28;20493;-76
2023/01/10 08:06:10;;;;;;;16.58;4.32;;;;;;;;;;5077169;28;20432;-77
2023/01/10 08:08:36;;;;;;;14.15;3.40;;;;;;;;;;5074945;28;20402;-76
2023/01/10 08:11:03;;;;;;;10.18;3.90;;;;;;;;;;5084343;28;20181;-76
2023/01/10 08:13:29;;;;;;;7.18;2.97;;;;;;;;;;5072875;28;20191;-76
2023/01/10 08:15:55;;;;;;;9.63;2.67;;;;;;;;;;5086366;28;20213;-77
2023/01/10 08:18:22;;;;;;;13.97;5.00;;;;;;;;;;5085020;28;20424;-76
2023/01/10 08:20:49;;;;;;;11.27;4.25;;;;;;;;;;5085508;28;21063;-76
2023/01/10 08:23:15;;;;;;;5.18;3.08;;;;;;;;;;5097986;27;20241;-77
2023/01/10 08:25:41;;;;;;;7.60;2.67;;;;;;;;;;5085392;28;20532;-76
2023/01/10 08:28:07;;;;;;;10.32;3.40;;;;;;;;;;5090897;28;20443;-76
2023/01/10 08:30:33;;;;;;;9.97;3.20;;;;;;;;;;5084779;28;20198;-76
2023/01/10 08:33:01;;;;;;;9.93;2.90;;;;;;;;;;5092178;28;20883;-76
2023/01/10 08:35:27;;;;;;;3.90;3.07;;;;;;;;;;5084633;28;20522;-77
2023/01/10 08:37:53;;;;;;;13.83;2.60;;;;;;;;;;5085112;28;20720;-76
2023/01/10 08:40:19;;;;;;;22.70;3.83;;;;;;;;;;5079038;28;20424;-76
2023/01/10 08:42:45;;;;;;;11.90;3.27;;;;;;;;;;5079571;28;20974;-76
2023/01/10 08:45:11;;;;;;;11.77;3.63;;;;;;;;;;5082740;28;20471;-76
2023/01/10 08:47:37;;;;;;;11.98;3.42;;;;;;;;;;5081100;28;20188;-77
2023/01/10 08:50:03;;;;;;;9.47;5.70;;;;;;;;;;5076284;28;20273;-75
2023/01/10 08:52:30;;;;;;;7.90;2.95;;;;;;;;;;5085163;28;20974;-76
2023/01/10 08:54:56;;;;;;;8.50;2.90;;;;;;;;;;5074496;28;20202;-76
2023/01/10 08:57:22;;;;;;;7.13;2.80;;;;;;;;;;5083540;28;20471;-76
2023/01/10 08:59:51;;;;;;;8.05;2.95;;;;;;;;;;5085204;28;20476;-76
2023/01/10 09:02:17;;;;;;;8.43;2.88;;;;;;;;;;5084160;28;20538;-75
2023/01/10 09:04:43;;;;;;;17.70;4.13;;;;;;;;;;5089388;28;20441;-76
2023/01/10 09:07:09;;;;;;;6.83;2.33;;;;;;;;;;5095090;27;20460;-77
2023/01/10 09:09:36;;;;;;;9.67;3.27;;;;;;;;;;5085156;28;20482;-75
2023/01/10 09:12:53;;;;;;;7.50;2.70;;;;;;;;;;5086900;28;20493;-76
2023/01/10 09:14:48;;;;;;;8.20;3.30;;;;;;;;;;5072477;28;20785;-77
2023/01/10 09:17:14;;;;;;;12.07;4.07;;;;;;;;;;5077772;28;20784;-76
2023/01/10 09:19:40;;;;;;;12.47;2.70;;;;;;;;;;5085140;28;20427;-76
2023/01/10 09:22:06;;;;;;;8.23;3.10;;;;;;;;;;5084558;28;20423;-76
2023/01/10 09:24:32;;;;;;;8.03;4.10;;;;;;;;;;5094987;28;20834;-77
2023/01/10 09:26:58;;;;;;;11.40;3.05;;;;;;;;;;5083654;28;20436;-77
2023/01/10 09:29:24;;;;;;;9.20;2.67;;;;;;;;;;5081333;28;20177;-76
2023/01/10 09:31:50;;;;;;;10.17;3.60;;;;;;;;;;5080766;28;20431;-77
2023/01/10 09:34:16;;;;;;;17.83;3.03;;;;;;;;;;5084666;28;20396;-77
2023/01/10 09:36:42;;;;;;;12.23;3.13;;;;;;;;;;5080505;28;20463;-75
2023/01/10 09:39:08;;;;;;;7.60;2.97;;;;;;;;;;5084414;28;20447;-77
2023/01/10 09:41:46;;;;;;;4.30;3.00;;;;;;;;;;5082113;28;20424;-76
2023/01/10 09:44:27;;;;;;;8.83;3.10;;;;;;;;;;5082646;28;20416;-77
2023/01/10 09:47:13;;;;;;;10.03;3.93;;;;;;;;;;5080466;28;20435;-78
2023/01/10 09:49:46;;;;;;;11.07;3.23;;;;;;;;;;5077012;28;20452;-75
2023/01/10 09:52:23;;;;;;;12.17;3.10;;;;;;;;;;5078944;28;20842;-77
2023/01/10 09:54:51;;;;;;;7.07;2.90;;;;;;;;;;5087085;28;20428;-76
2023/01/10 09:57:18;;;;;;;16.47;3.53;;;;;;;;;;5086247;28;20467;-76
2023/01/10 09:59:44;;;;;;;18.33;2.80;;;;;;;;;;5087556;28;20430;-76
2023/01/10 10:02:20;;;;;;;13.50;3.13;;;;;;;;;;5092662;28;20619;-76
2023/01/10 10:04:53;;;;;;;7.33;3.20;;;;;;;;;;5081596;28;20817;-76
2023/01/10 10:07:19;;;;;;;11.10;2.83;;;;;;;;;;5086684;28;20974;-75
2023/01/10 10:09:45;;;;;;;7.70;2.10;;;;;;;;;;5080535;28;21085;-75
2023/01/10 10:12:34;;;;;;;11.63;3.40;;;;;;;;;;5093665;28;20449;-74
2023/01/10 10:15:23;;;;;;;4.57;2.80;;;;;;;;;;5077353;28;20419;-75
2023/01/10 10:17:52;;;;;;;8.17;3.80;;;;;;;;;;5090282;28;20540;-75
2023/01/10 10:20:18;;;;;;;10.10;3.43;;;;;;;;;;5091532;28;20790;-75
2023/01/10 10:22:44;;;;;;;10.73;4.23;;;;;;;;;;5093954;28;20460;-75
2023/01/10 10:25:10;;;;;;;8.27;3.47;;;;;;;;;;5088376;28;20943;-76
2023/01/10 10:27:54;;;;;;;13.03;3.57;;;;;;;;;;5085360;28;20466;-75
2023/01/10 10:30:41;;;;;;;9.03;2.70;;;;;;;;;;5075111;28;20435;-75
2023/01/10 10:33:18;;;;;;;13.97;3.03;;;;;;;;;;5089215;28;20508;-75
2023/01/10 10:36:04;;;;;;;9.00;2.40;;;;;;;;;;5080067;28;20852;-76
2023/01/10 10:38:33;;;;;;;9.30;3.27;;;;;;;;;;5081565;28;20415;-76
2023/01/10 10:40:59;;;;;;;2.80;2.10;;;;;;;;;;5085593;28;20994;-75
2023/01/10 10:43:33;;;;;;;11.17;3.37;;;;;;;;;;5083351;28;20424;-75
2023/01/10 10:46:18;;;;;;;6.07;3.50;;;;;;;;;;5079080;28;20436;-75
2023/01/10 10:48:49;;;;;;;9.73;5.03;;;;;;;;;;5085616;28;20445;-77
2023/01/10 10:51:34;;;;;;;6.40;1.60;;;;;;;;;;5090247;28;20440;-76
2023/01/10 10:54:00;;;;;;;7.30;2.60;;;;;;;;;;5079965;28;20431;-76
2023/01/10 10:56:26;;;;;;;7.87;3.13;;;;;;;;;;5104222;27;20460;-76
2023/01/10 10:58:54;;;;;;;8.23;2.90;;;;;;;;;;5078359;28;20504;-77
2023/01/10 11:01:21;;;;;;;9.23;2.27;;;;;;;;;;5088033;28;20733;-76
2023/01/10 11:04:06;;;;;;;7.40;2.70;;;;;;;;;;5081484;28;20434;-76
2023/01/10 11:06:32;;;;;;;16.47;2.40;;;;;;;;;;5082089;28;20444;-76
2023/01/10 11:09:00;;;;;;;4.93;2.90;;;;;;;;;;5079656;28;20914;-76
2023/01/10 11:11:30;;;;;;;13.33;3.53;;;;;;;;;;5078571;28;20526;-75
2023/01/10 11:14:00;;;;;;;11.90;2.40;;;;;;;;;;5082374;28;20720;-75
2023/01/10 11:16:35;;;;;;;10.70;3.50;;;;;;;;;;5087335;28;20481;-76
2023/01/10 11:19:20;;;;;;;9.43;2.70;;;;;;;;;;5080924;28;20793;-77
2023/01/10 11:21:56;;;;;;;8.13;2.73;;;;;;;;;;5080976;28;20448;-75
2023/01/10 11:24:26;;;;;;;9.53;2.37;;;;;;;;;;5070989;28;20799;-75
2023/01/10 11:26:52;;;;;;;10.17;2.73;;;;;;;;;;5083535;28;20436;-76
2023/01/10 11:29:21;;;;;;;5.77;2.50;;;;;;;;;;5113062;27;20420;-76
2023/01/10 11:31:48;;;;;;;9.00;2.50;;;;;;;;;;5085908;28;20443;-77
2023/01/10 11:34:29;;;;;;;9.57;2.40;;;;;;;;;;5080284;28;20489;-76
2023/01/10 11:37:16;;;;;;;12.60;4.20;;;;;;;;;;5082570;28;20463;-76
2023/01/10 11:40:01;;;;;;;17.23;3.70;;;;;;;;;;5078273;28;20408;-76
2023/01/10 11:42:31;;;;;;;11.10;2.77;;;;;;;;;;5088681;28;20435;-78
2023/01/10 11:45:18;;;;;;;11.40;3.27;;;;;;;;;;5079845;28;20428;-75
2023/01/10 11:47:53;;;;;;;16.17;3.63;;;;;;;;;;5067560;28;20413;-76
2023/01/10 11:50:21;;;;;;;8.73;2.73;;;;;;;;;;5085923;28;20457;-76
2023/01/10 11:52:48;;;;;;;5.50;3.33;;;;;;;;;;5083966;28;20705;-76
2023/01/10 11:55:18;;;;;;;10.87;5.23;;;;;;;;;;5088368;28;20519;-75
2023/01/10 11:57:45;;;;;;;13.60;3.17;;;;;;;;;;5080392;28;20602;-76
2023/01/10 12:00:11;;;;;;;13.97;4.07;;;;;;;;;;5081209;28;20457;-76
2023/01/10 12:02:41;;;;;;;10.37;2.43;;;;;;;;;;5078600;28;20941;-76
2023/01/10 12:05:09;;;;;;;11.37;2.53;;;;;;;;;;5089489;28;20476;-76
2023/01/10 12:07:55;;;;;;;7.93;2.00;;;;;;;;;;5084342;28;20417;-76
2023/01/10 12:10:21;;;;;;;6.17;2.60;;;;;;;;;;5076370;28;20953;-77
2023/01/10 12:12:58;;;;;;;9.27;2.80;;;;;;;;;;5100737;28;20942;-77
2023/01/10 12:15:25;;;;;;;9.13;3.50;;;;;;;;;;5068338;28;20435;-77
2023/01/10 12:17:52;;;;;;;9.20;4.00;;;;;;;;;;5080288;28;20549;-76
2023/01/10 12:20:18;;;;;;;5.67;2.60;;;;;;;;;;5080689;28;20973;-76
2023/01/10 12:22:51;;;;;;;6.27;2.43;;;;;;;;;;5077432;28;20432;-78
2023/01/10 12:25:17;;;;;;;10.80;3.28;;;;;;;;;;5078053;28;21168;-76
2023/01/10 12:27:45;;;;;;;14.67;3.10;;;;;;;;;;5099880;28;20544;-77
2023/01/10 12:30:22;;;;;;;11.97;3.10;;;;;;;;;;5075799;28;20439;-77
2023/01/10 12:32:53;;;;;;;9.03;2.70;;;;;;;;;;5074411;28;20470;-77
2023/01/10 12:35:39;;;;;;;5.50;2.10;;;;;;;;;;5081367;28;20795;-76
2023/01/10 12:38:22;;;;;;;9.33;2.10;;;;;;;;;;5085281;28;20439;-77
2023/01/10 12:40:52;;;;;;;2.10;1.27;;;;;;;;;;5074865;28;20435;-78
2023/01/10 12:46:09;;;;;;;12.40;3.57;;;;;;;;;;5068516;28;20431;-78
2023/01/10 12:48:45;;;;;;;15.93;3.37;;;;;;;;;;5083053;28;20894;-78
2023/01/10 12:51:14;;;;;;;6.33;2.33;;;;;;;;;;5081732;28;20435;-77
2023/01/10 12:53:49;;;;;;;12.23;3.90;;;;;;;;;;5074504;28;20559;-76
2023/01/10 12:56:17;;;;;;;4.80;2.67;;;;;;;;;;5083782;28;21013;-76
2023/01/10 12:58:45;;;;;;;10.83;3.33;;;;;;;;;;5076623;28;20424;-78
2023/01/10 13:01:16;;;;;;;5.70;2.13;;;;;;;;;;5084585;28;20423;-79
2023/01/10 13:03:43;;;;;;;7.40;2.53;;;;;;;;;;5087122;28;20632;-77
2023/01/10 13:06:16;;;;;;;9.20;2.97;;;;;;;;;;5081916;28;20431;-77
2023/01/10 13:08:42;;;;;;;5.90;2.33;;;;;;;;;;5080416;28;20458;-78
2023/01/10 13:11:11;;;;;;;13.67;2.60;;;;;;;;;;5068475;28;20498;-77
2023/01/10 13:13:40;;;;;;;19.27;3.10;;;;;;;;;;5081784;28;20484;-77
2023/01/10 13:16:15;;;;;;;4.73;2.00;;;;;;;;;;5080698;28;20471;-77
2023/01/10 13:19:00;;;;;;;9.30;2.20;;;;;;;;;;5082983;28;20420;-77
2023/01/10 13:21:27;;;;;;;9.50;2.07;;;;;;;;;;5083406;28;20432;-77
2023/01/10 13:23:58;;;;;;;8.43;2.30;;;;;;;;;;5084514;28;20458;-78
2023/01/10 13:26:24;;;;;;;7.33;2.87;;;;;;;;;;5073674;28;20429;-77
2023/01/10 13:29:02;;;;;;;5.20;1.40;;;;;;;;;;5083523;28;20825;-76
2023/01/10 13:31:30;;;;;;;3.83;1.90;;;;;;;;;;5069367;28;20933;-75
2023/01/10 13:34:08;;;;;;;6.15;2.50;;;;;;;;;;5097876;28;20435;-76
2023/01/10 13:36:42;;;;;;;14.50;2.43;;;;;;;;;;5088378;28;20258;-74
2023/01/10 13:39:19;;;;;;;8.13;2.90;;;;;;;;;;5083463;28;20863;-75
2023/01/10 13:45:01;;;;;;;7.20;2.33;;;;;;;;;;5070137;28;20410;-76
2023/01/10 13:47:38;;;;;;;9.30;2.23;;;;;;;;;;5077401;28;20421;-75
2023/01/10 13:52:49;;;;;;;8.73;2.70;;;;;;;;;;5082807;28;20412;-76
2023/01/10 13:55:53;;;;;;;9.30;2.00;;;;;;;;;;5087364;28;20738;-76
2023/01/10 14:02:27;;;;;;;12.93;2.43;;;;;;;;;;5086999;28;20461;-75
2023/01/10 14:04:20;;;;;;;2.43;1.37;;;;;;;;;;5066457;28;20423;-76
2023/01/10 14:06:51;;;;;;;6.93;2.30;;;;;;;;;;5089153;28;20432;-77
2023/01/10 14:09:17;;;;;;;4.90;1.63;;;;;;;;;;5085462;28;20456;-77
2023/01/10 14:11:43;;;;;;;8.00;3.60;;;;;;;;;;5091624;28;20870;-75
2023/01/10 14:14:21;;;;;;;6.93;2.10;;;;;;;;;;5093679;27;20610;-75
2023/01/10 14:16:49;;;;;;;4.03;2.50;;;;;;;;;;5083731;28;21217;-75
2023/01/10 14:19:28;;;;;;;5.13;2.73;;;;;;;;;;5075703;28;20546;-75
2023/01/10 14:21:55;;;;;;;17.77;2.73;;;;;;;;;;5084407;28;20746;-75
2023/01/10 14:24:24;;;;;;;5.13;2.73;;;;;;;;;;5088460;28;20489;-76
2023/01/10 14:26:51;;;;;;;8.33;1.90;;;;;;;;;;5083270;28;20695;-79
2023/01/10 14:29:19;;;;;;;7.93;2.10;;;;;;;;;;5085222;28;20794;-77
2023/01/10 14:31:46;;;;;;;6.17;2.47;;;;;;;;;;5090376;28;20725;-77
2023/01/10 14:34:19;;;;;;;5.75;1.73;;;;;;;;;;5089252;28;20538;-77
2023/01/10 14:36:49;;;;;;;12.03;2.10;;;;;;;;;;5086239;28;20228;-77
2023/01/10 14:39:15;;;;;;;6.03;1.93;;;;;;;;;;5089911;28;20439;-77
2023/01/10 14:41:43;;;;;;;9.48;2.65;;;;;;;;;;5084968;28;20443;-76
2023/01/10 14:44:15;;;;;;;7.70;2.70;;;;;;;;;;5084491;28;20564;-77
2023/01/10 14:46:48;;;;;;;3.60;1.97;;;;;;;;;;5076311;28;20825;-78
2023/01/10 14:49:20;;;;;;;2.63;1.90;;;;;;;;;;5085835;28;20506;-77
2023/01/10 14:51:49;;;;;;;9.17;4.17;;;;;;;;;;5084234;28;20502;-75
2023/01/10 14:54:16;;;;;;;5.00;2.53;;;;;;;;;;5094296;28;20416;-78
2023/01/10 14:57:06;;;;;;;9.40;2.73;;;;;;;;;;5081643;28;20551;-77
2023/01/10 14:59:35;;;;;;;18.90;2.30;;;;;;;;;;5086418;28;20438;-77
2023/01/10 15:02:02;;;;;;;4.17;2.40;;;;;;;;;;5080566;28;21039;-75
2023/01/10 15:04:33;;;;;;;5.07;2.43;;;;;;;;;;5084350;28;20432;-77
2023/01/10 15:07:11;;;;;;;2.80;1.67;;;;;;;;;;5087246;28;20450;-77
2023/01/10 15:09:38;;;;;;;6.13;1.40;;;;;;;;;;5083172;28;20457;-76
2023/01/10 15:12:06;;;;;;;5.50;2.53;;;;;;;;;;5076607;28;20810;-76